sensor_id;sensor_type;location;lat;lon;timestamp;P1;durP1;ratioP1;P2;durP2;ratioP2
4704;SDS011;2366;51.332;6.610;2022-09-24T00:01:27;16.52;;;11.57;;
4704;SDS011;2366;51.332;6.610;2022-09-24T00:03:55;18.25;;;11.93;;
4704;SDS011;2366;51.332;6.610;2022-09-24T00:06:24;18.33;;;11.82;;
4704;SDS011;2366;51.332;6.610;2022-09-24T00:08:52;22.08;;;13.05;;
4704;SDS011;2366;51.332;6.610;2022-09-24T00:11:19;18.13;;;11.10;;
4704;SDS011;2366;51.332;6.610;2022-09-24T00:13:46;12.57;;;10.45;;
4704;SDS011;2366;51.332;6.610;2022-09-24T00:16:13;14.75;;;11.20;;
4704;SDS011;2366;51.332;6.610;2022-09-24T00:18:39;16.15;;;10.82;;
4704;SDS011;2366;51.332;6.610;2022-09-24T00:23:43;14.77;;;11.52;;
4704;SDS011;2366;51.332;6.610;2022-09-24T00:26:12;19.85;;;11.95;;
4704;SDS011;2366;51.332;6.610;2022-09-24T00:28:56;24.40;;;11.70;;
4704;SDS011;2366;51.332;6.610;2022-09-24T00:31:22;21.60;;;12.80;;
4704;SDS011;2366;51.332;6.610;2022-09-24T00:33:48;14.90;;;11.25;;
4704;SDS011;2366;51.332;6.610;2022-09-24T00:36:16;15.70;;;12.20;;
4704;SDS011;2366;51.332;6.610;2022-09-24T00:38:43;16.92;;;11.38;;
4704;SDS011;2366;51.332;6.610;2022-09-24T00:41:08;20.13;;;12.87;;
4704;SDS011;2366;51.332;6.610;2022-09-24T00:43:35;16.40;;;12.50;;
4704;SDS011;2366;51.332;6.610;2022-09-24T00:48:49;18.17;;;12.27;;
4704;SDS011;2366;51.332;6.610;2022-09-24T00:51:19;17.90;;;12.50;;
4704;SDS011;2366;51.332;6.610;2022-09-24T00:53:49;24.27;;;14.10;;
4704;SDS011;2366;51.332;6.610;2022-09-24T00:56:19;17.65;;;11.02;;
4704;SDS011;2366;51.332;6.610;2022-09-24T00:58:48;21.65;;;12.30;;
4704;SDS011;2366;51.332;6.610;2022-09-24T01:01:17;17.80;;;13.35;;
4704;SDS011;2366;51.332;6.610;2022-09-24T01:03:47;20.42;;;12.75;;
4704;SDS011;2366;51.332;6.610;2022-09-24T01:06:14;23.02;;;12.85;;
4704;SDS011;2366;51.332;6.610;2022-09-24T01:08:40;18.07;;;10.90;;
4704;SDS011;2366;51.332;6.610;2022-09-24T01:16:33;15.82;;;11.30;;
4704;SDS011;2366;51.332;6.610;2022-09-24T01:21:55;20.80;;;13.85;;
4704;SDS011;2366;51.332;6.610;2022-09-24T01:27:38;15.82;;;11.65;;
4704;SDS011;2366;51.332;6.610;2022-09-24T01:30:23;20.13;;;13.52;;
4704;SDS011;2366;51.332;6.610;2022-09-24T01:35:26;18.92;;;14.32;;
4704;SDS011;2366;51.332;6.610;2022-09-24T01:38:19;22.42;;;15.45;;
4704;SDS011;2366;51.332;6.610;2022-09-24T01:40:45;25.55;;;12.93;;
4704;SDS011;2366;51.332;6.610;2022-09-24T01:43:12;20.02;;;12.45;;
4704;SDS011;2366;51.332;6.610;2022-09-24T01:45:40;17.70;;;11.50;;
4704;SDS011;2366;51.332;6.610;2022-09-24T01:48:06;18.80;;;13.70;;
4704;SDS011;2366;51.332;6.610;2022-09-24T01:50:33;14.00;;;11.60;;
4704;SDS011;2366;51.332;6.610;2022-09-24T01:55:42;21.45;;;13.88;;
4704;SDS011;2366;51.332;6.610;2022-09-24T01:58:25;21.15;;;12.80;;
4704;SDS011;2366;51.332;6.610;2022-09-24T02:01:00;18.30;;;13.98;;
4704;SDS011;2366;51.332;6.610;2022-09-24T02:03:33;19.60;;;12.70;;
4704;SDS011;2366;51.332;6.610;2022-09-24T02:06:12;29.23;;;14.25;;
4704;SDS011;2366;51.332;6.610;2022-09-24T02:08:45;19.80;;;12.35;;
4704;SDS011;2366;51.332;6.610;2022-09-24T02:11:13;17.90;;;12.93;;
4704;SDS011;2366;51.332;6.610;2022-09-24T02:13:56;18.92;;;13.50;;
4704;SDS011;2366;51.332;6.610;2022-09-24T02:16:35;18.73;;;14.60;;
4704;SDS011;2366;51.332;6.610;2022-09-24T02:19:07;17.95;;;11.98;;
4704;SDS011;2366;51.332;6.610;2022-09-24T02:21:37;23.48;;;14.25;;
4704;SDS011;2366;51.332;6.610;2022-09-24T02:24:13;21.02;;;13.45;;
4704;SDS011;2366;51.332;6.610;2022-09-24T02:26:41;18.20;;;13.68;;
4704;SDS011;2366;51.332;6.610;2022-09-24T02:29:07;21.20;;;14.30;;
4704;SDS011;2366;51.332;6.610;2022-09-24T02:31:34;19.00;;;12.97;;
4704;SDS011;2366;51.332;6.610;2022-09-24T02:34:05;18.23;;;13.57;;
4704;SDS011;2366;51.332;6.610;2022-09-24T02:36:46;18.77;;;13.32;;
4704;SDS011;2366;51.332;6.610;2022-09-24T02:39:12;21.13;;;13.70;;
4704;SDS011;2366;51.332;6.610;2022-09-24T02:41:37;25.07;;;13.00;;
4704;SDS011;2366;51.332;6.610;2022-09-24T02:44:05;20.40;;;13.32;;
4704;SDS011;2366;51.332;6.610;2022-09-24T02:46:30;21.40;;;13.83;;
4704;SDS011;2366;51.332;6.610;2022-09-24T02:48:55;21.77;;;12.90;;
4704;SDS011;2366;51.332;6.610;2022-09-24T02:51:21;18.77;;;14.43;;
4704;SDS011;2366;51.332;6.610;2022-09-24T02:53:47;17.73;;;13.83;;
4704;SDS011;2366;51.332;6.610;2022-09-24T02:56:12;20.27;;;13.20;;
4704;SDS011;2366;51.332;6.610;2022-09-24T02:58:38;18.10;;;12.90;;
4704;SDS011;2366;51.332;6.610;2022-09-24T03:01:03;20.10;;;13.93;;
4704;SDS011;2366;51.332;6.610;2022-09-24T03:03:29;20.95;;;13.55;;
4704;SDS011;2366;51.332;6.610;2022-09-24T03:05:55;17.55;;;12.13;;
4704;SDS011;2366;51.332;6.610;2022-09-24T03:08:21;18.97;;;12.40;;
4704;SDS011;2366;51.332;6.610;2022-09-24T03:10:48;23.35;;;13.40;;
4704;SDS011;2366;51.332;6.610;2022-09-24T03:13:14;19.40;;;14.50;;
4704;SDS011;2366;51.332;6.610;2022-09-24T03:15:40;35.40;;;14.90;;
4704;SDS011;2366;51.332;6.610;2022-09-24T03:18:05;18.90;;;13.20;;
4704;SDS011;2366;51.332;6.610;2022-09-24T03:20:31;18.03;;;12.23;;
4704;SDS011;2366;51.332;6.610;2022-09-24T03:22:56;22.90;;;12.80;;
4704;SDS011;2366;51.332;6.610;2022-09-24T03:25:22;21.23;;;13.50;;
4704;SDS011;2366;51.332;6.610;2022-09-24T03:27:47;18.93;;;12.83;;
4704;SDS011;2366;51.332;6.610;2022-09-24T03:30:12;24.77;;;13.43;;
4704;SDS011;2366;51.332;6.610;2022-09-24T03:32:57;17.25;;;12.80;;
4704;SDS011;2366;51.332;6.610;2022-09-24T03:35:23;19.38;;;13.60;;
4704;SDS011;2366;51.332;6.610;2022-09-24T03:37:49;30.27;;;13.97;;
4704;SDS011;2366;51.332;6.610;2022-09-24T03:40:14;21.63;;;15.80;;
4704;SDS011;2366;51.332;6.610;2022-09-24T03:42:40;24.00;;;15.00;;
4704;SDS011;2366;51.332;6.610;2022-09-24T03:45:05;23.57;;;15.03;;
4704;SDS011;2366;51.332;6.610;2022-09-24T03:47:31;19.70;;;13.40;;
4704;SDS011;2366;51.332;6.610;2022-09-24T03:49:57;31.02;;;14.48;;
4704;SDS011;2366;51.332;6.610;2022-09-24T03:52:23;24.73;;;14.87;;
4704;SDS011;2366;51.332;6.610;2022-09-24T03:54:50;20.33;;;12.13;;
4704;SDS011;2366;51.332;6.610;2022-09-24T03:57:15;19.13;;;13.73;;
4704;SDS011;2366;51.332;6.610;2022-09-24T03:59:41;21.57;;;14.67;;
4704;SDS011;2366;51.332;6.610;2022-09-24T04:02:08;23.38;;;16.13;;
4704;SDS011;2366;51.332;6.610;2022-09-24T04:04:34;19.77;;;13.95;;
4704;SDS011;2366;51.332;6.610;2022-09-24T04:06:59;21.83;;;15.57;;
4704;SDS011;2366;51.332;6.610;2022-09-24T04:09:25;26.20;;;14.50;;
4704;SDS011;2366;51.332;6.610;2022-09-24T04:11:50;21.23;;;15.10;;
4704;SDS011;2366;51.332;6.610;2022-09-24T04:14:19;20.60;;;14.30;;
4704;SDS011;2366;51.332;6.610;2022-09-24T04:16:45;29.23;;;16.07;;
4704;SDS011;2366;51.332;6.610;2022-09-24T04:19:13;26.27;;;16.08;;
4704;SDS011;2366;51.332;6.610;2022-09-24T04:21:42;23.90;;;16.05;;
4704;SDS011;2366;51.332;6.610;2022-09-24T04:24:11;20.13;;;14.77;;
4704;SDS011;2366;51.332;6.610;2022-09-24T04:26:36;27.70;;;15.77;;
4704;SDS011;2366;51.332;6.610;2022-09-24T04:29:02;23.57;;;15.10;;
4704;SDS011;2366;51.332;6.610;2022-09-24T04:31:27;22.10;;;14.43;;
4704;SDS011;2366;51.332;6.610;2022-09-24T04:33:52;22.70;;;15.13;;
4704;SDS011;2366;51.332;6.610;2022-09-24T04:36:18;27.07;;;16.03;;
4704;SDS011;2366;51.332;6.610;2022-09-24T04:38:44;21.90;;;16.40;;
4704;SDS011;2366;51.332;6.610;2022-09-24T04:41:12;22.40;;;15.88;;
4704;SDS011;2366;51.332;6.610;2022-09-24T04:43:42;25.10;;;16.95;;
4704;SDS011;2366;51.332;6.610;2022-09-24T04:46:07;24.43;;;16.60;;
4704;SDS011;2366;51.332;6.610;2022-09-24T04:48:34;23.73;;;16.05;;
4704;SDS011;2366;51.332;6.610;2022-09-24T04:51:06;31.35;;;17.42;;
4704;SDS011;2366;51.332;6.610;2022-09-24T04:53:33;30.63;;;15.82;;
4704;SDS011;2366;51.332;6.610;2022-09-24T04:56:00;24.25;;;15.00;;
4704;SDS011;2366;51.332;6.610;2022-09-24T04:58:26;27.37;;;18.63;;
4704;SDS011;2366;51.332;6.610;2022-09-24T05:00:52;27.60;;;18.20;;
4704;SDS011;2366;51.332;6.610;2022-09-24T05:03:17;24.70;;;16.10;;
4704;SDS011;2366;51.332;6.610;2022-09-24T05:05:46;24.45;;;18.35;;
4704;SDS011;2366;51.332;6.610;2022-09-24T05:08:12;23.40;;;17.90;;
4704;SDS011;2366;51.332;6.610;2022-09-24T05:10:38;33.50;;;19.43;;
4704;SDS011;2366;51.332;6.610;2022-09-24T05:13:03;28.20;;;18.63;;
4704;SDS011;2366;51.332;6.610;2022-09-24T05:15:29;31.33;;;18.70;;
4704;SDS011;2366;51.332;6.610;2022-09-24T05:17:55;26.73;;;18.23;;
4704;SDS011;2366;51.332;6.610;2022-09-24T05:20:20;28.30;;;18.00;;
4704;SDS011;2366;51.332;6.610;2022-09-24T05:22:47;26.20;;;17.77;;
4704;SDS011;2366;51.332;6.610;2022-09-24T05:25:14;30.15;;;18.10;;
4704;SDS011;2366;51.332;6.610;2022-09-24T05:27:47;25.75;;;17.05;;
4704;SDS011;2366;51.332;6.610;2022-09-24T05:30:14;42.08;;;20.33;;
4704;SDS011;2366;51.332;6.610;2022-09-24T05:32:40;30.77;;;19.30;;
4704;SDS011;2366;51.332;6.610;2022-09-24T05:35:06;36.23;;;19.17;;
4704;SDS011;2366;51.332;6.610;2022-09-24T05:37:32;28.37;;;19.27;;
4704;SDS011;2366;51.332;6.610;2022-09-24T05:39:58;37.63;;;21.85;;
4704;SDS011;2366;51.332;6.610;2022-09-24T05:42:47;26.73;;;19.17;;
4704;SDS011;2366;51.332;6.610;2022-09-24T05:45:12;27.43;;;19.03;;
4704;SDS011;2366;51.332;6.610;2022-09-24T05:47:42;25.60;;;18.70;;
4704;SDS011;2366;51.332;6.610;2022-09-24T05:50:14;26.10;;;18.05;;
4704;SDS011;2366;51.332;6.610;2022-09-24T05:52:39;26.80;;;17.50;;
4704;SDS011;2366;51.332;6.610;2022-09-24T05:55:05;35.30;;;18.33;;
4704;SDS011;2366;51.332;6.610;2022-09-24T05:57:32;24.23;;;16.40;;
4704;SDS011;2366;51.332;6.610;2022-09-24T05:59:58;24.70;;;18.47;;
4704;SDS011;2366;51.332;6.610;2022-09-24T06:02:23;28.60;;;18.77;;
4704;SDS011;2366;51.332;6.610;2022-09-24T06:04:49;26.87;;;18.03;;
4704;SDS011;2366;51.332;6.610;2022-09-24T06:07:14;34.73;;;18.30;;
4704;SDS011;2366;51.332;6.610;2022-09-24T06:09:39;25.13;;;18.23;;
4704;SDS011;2366;51.332;6.610;2022-09-24T06:12:06;24.60;;;17.40;;
4704;SDS011;2366;51.332;6.610;2022-09-24T06:14:32;28.02;;;19.67;;
4704;SDS011;2366;51.332;6.610;2022-09-24T06:16:57;34.07;;;18.83;;
4704;SDS011;2366;51.332;6.610;2022-09-24T06:19:23;26.83;;;18.57;;
4704;SDS011;2366;51.332;6.610;2022-09-24T06:21:48;23.77;;;17.73;;
4704;SDS011;2366;51.332;6.610;2022-09-24T06:24:13;38.43;;;20.27;;
4704;SDS011;2366;51.332;6.610;2022-09-24T06:26:39;32.13;;;18.00;;
4704;SDS011;2366;51.332;6.610;2022-09-24T06:29:06;30.88;;;18.88;;
4704;SDS011;2366;51.332;6.610;2022-09-24T06:31:31;21.67;;;17.73;;
4704;SDS011;2366;51.332;6.610;2022-09-24T06:33:58;24.05;;;16.73;;
4704;SDS011;2366;51.332;6.610;2022-09-24T06:36:24;26.83;;;16.10;;
4704;SDS011;2366;51.332;6.610;2022-09-24T06:38:50;30.33;;;18.58;;
4704;SDS011;2366;51.332;6.610;2022-09-24T06:41:16;26.98;;;17.13;;
4704;SDS011;2366;51.332;6.610;2022-09-24T06:43:42;31.00;;;18.13;;
4704;SDS011;2366;51.332;6.610;2022-09-24T06:46:07;25.73;;;16.03;;
4704;SDS011;2366;51.332;6.610;2022-09-24T06:48:34;24.92;;;18.20;;
4704;SDS011;2366;51.332;6.610;2022-09-24T06:51:02;28.33;;;16.92;;
4704;SDS011;2366;51.332;6.610;2022-09-24T06:53:29;27.25;;;18.48;;
4704;SDS011;2366;51.332;6.610;2022-09-24T06:55:55;25.57;;;16.93;;
4704;SDS011;2366;51.332;6.610;2022-09-24T06:58:27;22.60;;;14.60;;
4704;SDS011;2366;51.332;6.610;2022-09-24T07:00:57;23.02;;;15.63;;
4704;SDS011;2366;51.332;6.610;2022-09-24T07:03:26;31.80;;;16.65;;
4704;SDS011;2366;51.332;6.610;2022-09-24T07:05:59;25.67;;;14.93;;
4704;SDS011;2366;51.332;6.610;2022-09-24T07:08:26;28.15;;;15.80;;
4704;SDS011;2366;51.332;6.610;2022-09-24T07:10:51;20.40;;;15.93;;
4704;SDS011;2366;51.332;6.610;2022-09-24T07:13:17;26.60;;;16.57;;
4704;SDS011;2366;51.332;6.610;2022-09-24T07:15:43;23.13;;;15.83;;
4704;SDS011;2366;51.332;6.610;2022-09-24T07:18:09;25.23;;;16.40;;
4704;SDS011;2366;51.332;6.610;2022-09-24T07:20:34;25.03;;;16.17;;
4704;SDS011;2366;51.332;6.610;2022-09-24T07:23:03;27.23;;;15.10;;
4704;SDS011;2366;51.332;6.610;2022-09-24T07:25:29;24.58;;;17.00;;
4704;SDS011;2366;51.332;6.610;2022-09-24T07:27:59;28.20;;;16.17;;
4704;SDS011;2366;51.332;6.610;2022-09-24T07:30:28;23.17;;;15.32;;
4704;SDS011;2366;51.332;6.610;2022-09-24T07:32:55;22.70;;;15.05;;
4704;SDS011;2366;51.332;6.610;2022-09-24T07:35:20;24.53;;;14.30;;
4704;SDS011;2366;51.332;6.610;2022-09-24T07:37:46;26.10;;;15.80;;
4704;SDS011;2366;51.332;6.610;2022-09-24T07:40:11;27.20;;;16.27;;
4704;SDS011;2366;51.332;6.610;2022-09-24T07:42:36;32.80;;;18.80;;
4704;SDS011;2366;51.332;6.610;2022-09-24T07:45:03;27.90;;;16.08;;
4704;SDS011;2366;51.332;6.610;2022-09-24T07:47:28;24.00;;;14.73;;
4704;SDS011;2366;51.332;6.610;2022-09-24T07:49:54;21.13;;;13.93;;
4704;SDS011;2366;51.332;6.610;2022-09-24T07:52:19;26.20;;;16.23;;
4704;SDS011;2366;51.332;6.610;2022-09-24T07:54:44;24.33;;;13.93;;
4704;SDS011;2366;51.332;6.610;2022-09-24T07:57:10;22.33;;;14.30;;
4704;SDS011;2366;51.332;6.610;2022-09-24T07:59:37;19.63;;;13.73;;
4704;SDS011;2366;51.332;6.610;2022-09-24T08:02:07;21.17;;;14.30;;
4704;SDS011;2366;51.332;6.610;2022-09-24T08:04:39;22.52;;;13.30;;
4704;SDS011;2366;51.332;6.610;2022-09-24T08:07:04;18.67;;;13.83;;
4704;SDS011;2366;51.332;6.610;2022-09-24T08:09:29;24.13;;;15.70;;
4704;SDS011;2366;51.332;6.610;2022-09-24T08:11:56;21.40;;;14.95;;
4704;SDS011;2366;51.332;6.610;2022-09-24T08:14:22;25.10;;;12.83;;
4704;SDS011;2366;51.332;6.610;2022-09-24T08:16:47;22.50;;;13.33;;
4704;SDS011;2366;51.332;6.610;2022-09-24T08:19:13;26.43;;;14.80;;
4704;SDS011;2366;51.332;6.610;2022-09-24T08:21:40;25.42;;;13.98;;
4704;SDS011;2366;51.332;6.610;2022-09-24T08:24:06;22.60;;;14.23;;
4704;SDS011;2366;51.332;6.610;2022-09-24T08:26:31;20.00;;;13.43;;
4704;SDS011;2366;51.332;6.610;2022-09-24T08:28:56;24.90;;;14.27;;
4704;SDS011;2366;51.332;6.610;2022-09-24T08:31:22;26.83;;;13.90;;
4704;SDS011;2366;51.332;6.610;2022-09-24T08:33:47;20.30;;;13.80;;
4704;SDS011;2366;51.332;6.610;2022-09-24T08:36:15;24.17;;;14.45;;
4704;SDS011;2366;51.332;6.610;2022-09-24T08:38:40;20.70;;;13.60;;
4704;SDS011;2366;51.332;6.610;2022-09-24T08:43:52;21.73;;;13.10;;
4704;SDS011;2366;51.332;6.610;2022-09-24T08:46:21;24.00;;;13.83;;
4704;SDS011;2366;51.332;6.610;2022-09-24T08:49:09;19.37;;;12.87;;
4704;SDS011;2366;51.332;6.610;2022-09-24T08:51:49;18.77;;;12.20;;
4704;SDS011;2366;51.332;6.610;2022-09-24T08:54:31;19.30;;;13.33;;
4704;SDS011;2366;51.332;6.610;2022-09-24T08:56:58;20.40;;;11.70;;
4704;SDS011;2366;51.332;6.610;2022-09-24T08:59:31;18.43;;;11.90;;
4704;SDS011;2366;51.332;6.610;2022-09-24T09:05:16;14.93;;;9.80;;
4704;SDS011;2366;51.332;6.610;2022-09-24T09:12:44;22.70;;;10.27;;
4704;SDS011;2366;51.332;6.610;2022-09-24T09:15:23;15.50;;;10.93;;
4704;SDS011;2366;51.332;6.610;2022-09-24T09:20:22;19.03;;;10.97;;
4704;SDS011;2366;51.332;6.610;2022-09-24T09:22:53;15.13;;;9.83;;
4704;SDS011;2366;51.332;6.610;2022-09-24T09:25:20;11.20;;;9.00;;
4704;SDS011;2366;51.332;6.610;2022-09-24T09:27:58;21.97;;;10.00;;
4704;SDS011;2366;51.332;6.610;2022-09-24T09:30:26;16.73;;;10.07;;
4704;SDS011;2366;51.332;6.610;2022-09-24T09:33:03;15.83;;;10.90;;
4704;SDS011;2366;51.332;6.610;2022-09-24T09:41:11;12.97;;;9.77;;
4704;SDS011;2366;51.332;6.610;2022-09-24T09:43:54;10.17;;;8.07;;
4704;SDS011;2366;51.332;6.610;2022-09-24T09:46:32;8.80;;;7.90;;
4704;SDS011;2366;51.332;6.610;2022-09-24T09:49:03;12.93;;;9.30;;
4704;SDS011;2366;51.332;6.610;2022-09-24T09:51:32;15.90;;;9.40;;
4704;SDS011;2366;51.332;6.610;2022-09-24T09:54:03;11.20;;;8.63;;
4704;SDS011;2366;51.332;6.610;2022-09-24T09:56:29;12.43;;;7.53;;
4704;SDS011;2366;51.332;6.610;2022-09-24T09:59:17;11.00;;;7.83;;
4704;SDS011;2366;51.332;6.610;2022-09-24T10:01:46;9.33;;;7.37;;
4704;SDS011;2366;51.332;6.610;2022-09-24T10:07:05;6.20;;;5.40;;
4704;SDS011;2366;51.332;6.610;2022-09-24T10:09:31;7.57;;;6.37;;
4704;SDS011;2366;51.332;6.610;2022-09-24T10:15:02;13.20;;;6.53;;
4704;SDS011;2366;51.332;6.610;2022-09-24T10:17:39;8.73;;;6.10;;
4704;SDS011;2366;51.332;6.610;2022-09-24T10:20:12;8.50;;;5.47;;
4704;SDS011;2366;51.332;6.610;2022-09-24T10:22:50;10.20;;;6.47;;
4704;SDS011;2366;51.332;6.610;2022-09-24T10:25:20;5.93;;;5.33;;
4704;SDS011;2366;51.332;6.610;2022-09-24T10:27:48;16.40;;;6.80;;
4704;SDS011;2366;51.332;6.610;2022-09-24T10:30:16;6.80;;;4.83;;
4704;SDS011;2366;51.332;6.610;2022-09-24T10:33:01;7.20;;;5.20;;
4704;SDS011;2366;51.332;6.610;2022-09-24T10:35:29;6.00;;;4.87;;
4704;SDS011;2366;51.332;6.610;2022-09-24T10:37:59;6.07;;;5.00;;
4704;SDS011;2366;51.332;6.610;2022-09-24T10:40:27;9.73;;;6.20;;
4704;SDS011;2366;51.332;6.610;2022-09-24T10:43:01;8.90;;;4.90;;
4704;SDS011;2366;51.332;6.610;2022-09-24T10:48:15;9.50;;;5.70;;
4704;SDS011;2366;51.332;6.610;2022-09-24T10:59:10;11.63;;;6.00;;
4704;SDS011;2366;51.332;6.610;2022-09-24T11:01:58;9.17;;;6.43;;
4704;SDS011;2366;51.332;6.610;2022-09-24T11:13:30;9.60;;;5.37;;
4704;SDS011;2366;51.332;6.610;2022-09-24T11:18:58;9.03;;;6.90;;
4704;SDS011;2366;51.332;6.610;2022-09-24T11:32:55;7.07;;;5.07;;
4704;SDS011;2366;51.332;6.610;2022-09-24T11:35:29;7.90;;;6.10;;
4704;SDS011;2366;51.332;6.610;2022-09-24T11:38:14;8.70;;;5.50;;
4704;SDS011;2366;51.332;6.610;2022-09-24T11:40:54;7.23;;;5.57;;
4704;SDS011;2366;51.332;6.610;2022-09-24T11:46:30;9.00;;;6.13;;
4704;SDS011;2366;51.332;6.610;2022-09-24T11:51:59;10.17;;;6.50;;
4704;SDS011;2366;51.332;6.610;2022-09-24T11:57:11;13.88;;;7.32;;
4704;SDS011;2366;51.332;6.610;2022-09-24T12:02:21;10.95;;;7.60;;
4704;SDS011;2366;51.332;6.610;2022-09-24T12:07:35;10.15;;;7.13;;
4704;SDS011;2366;51.332;6.610;2022-09-24T12:13:17;7.53;;;6.70;;
4704;SDS011;2366;51.332;6.610;2022-09-24T12:15:48;14.83;;;6.47;;
4704;SDS011;2366;51.332;6.610;2022-09-24T12:18:20;7.77;;;5.80;;
4704;SDS011;2366;51.332;6.610;2022-09-24T12:24:08;6.73;;;5.57;;
4704;SDS011;2366;51.332;6.610;2022-09-24T12:26:39;9.27;;;6.17;;
4704;SDS011;2366;51.332;6.610;2022-09-24T12:29:22;6.97;;;5.40;;
4704;SDS011;2366;51.332;6.610;2022-09-24T12:32:14;6.77;;;5.60;;
4704;SDS011;2366;51.332;6.610;2022-09-24T12:37:52;7.40;;;5.93;;
4704;SDS011;2366;51.332;6.610;2022-09-24T12:46:20;6.70;;;5.57;;
4704;SDS011;2366;51.332;6.610;2022-09-24T12:48:49;10.90;;;6.07;;
4704;SDS011;2366;51.332;6.610;2022-09-24T12:51:18;8.00;;;5.80;;
4704;SDS011;2366;51.332;6.610;2022-09-24T12:53:55;7.27;;;5.90;;
4704;SDS011;2366;51.332;6.610;2022-09-24T12:56:24;9.98;;;6.50;;
4704;SDS011;2366;51.332;6.610;2022-09-24T12:58:51;8.50;;;5.40;;
4704;SDS011;2366;51.332;6.610;2022-09-24T13:06:38;8.20;;;6.03;;
4704;SDS011;2366;51.332;6.610;2022-09-24T13:09:22;9.82;;;5.95;;
4704;SDS011;2366;51.332;6.610;2022-09-24T13:14:26;9.30;;;6.25;;
4704;SDS011;2366;51.332;6.610;2022-09-24T13:16:58;9.98;;;6.00;;
4704;SDS011;2366;51.332;6.610;2022-09-24T13:22:05;9.52;;;5.95;;
4704;SDS011;2366;51.332;6.610;2022-09-24T13:24:50;6.93;;;5.18;;
4704;SDS011;2366;51.332;6.610;2022-09-24T13:33:00;8.63;;;6.25;;
4704;SDS011;2366;51.332;6.610;2022-09-24T13:35:40;8.40;;;6.10;;
4704;SDS011;2366;51.332;6.610;2022-09-24T13:38:26;8.85;;;6.97;;
4704;SDS011;2366;51.332;6.610;2022-09-24T13:40:59;8.55;;;5.97;;
4704;SDS011;2366;51.332;6.610;2022-09-24T13:43:45;7.25;;;5.32;;
4704;SDS011;2366;51.332;6.610;2022-09-24T13:46:15;9.98;;;7.22;;
4704;SDS011;2366;51.332;6.610;2022-09-24T13:51:26;11.20;;;7.10;;
4704;SDS011;2366;51.332;6.610;2022-09-24T13:54:02;8.95;;;6.50;;
4704;SDS011;2366;51.332;6.610;2022-09-24T13:56:43;11.75;;;6.78;;
4704;SDS011;2366;51.332;6.610;2022-09-24T13:59:40;7.25;;;6.38;;
4704;SDS011;2366;51.332;6.610;2022-09-24T14:02:21;10.67;;;6.00;;
4704;SDS011;2366;51.332;6.610;2022-09-24T14:04:52;10.30;;;6.80;;
4704;SDS011;2366;51.332;6.610;2022-09-24T14:07:22;8.70;;;5.38;;
4704;SDS011;2366;51.332;6.610;2022-09-24T14:09:48;9.93;;;7.32;;
4704;SDS011;2366;51.332;6.610;2022-09-24T14:12:16;10.02;;;7.53;;
4704;SDS011;2366;51.332;6.610;2022-09-24T14:14:50;8.20;;;6.43;;
4704;SDS011;2366;51.332;6.610;2022-09-24T14:17:18;10.75;;;7.78;;
4704;SDS011;2366;51.332;6.610;2022-09-24T14:19:43;13.70;;;8.97;;
4704;SDS011;2366;51.332;6.610;2022-09-24T14:22:11;12.17;;;7.27;;
4704;SDS011;2366;51.332;6.610;2022-09-24T14:24:59;15.55;;;7.72;;
4704;SDS011;2366;51.332;6.610;2022-09-24T14:27:31;10.50;;;7.78;;
4704;SDS011;2366;51.332;6.610;2022-09-24T14:30:02;14.95;;;9.07;;
4704;SDS011;2366;51.332;6.610;2022-09-24T14:32:36;11.25;;;8.18;;
4704;SDS011;2366;51.332;6.610;2022-09-24T14:35:17;13.13;;;10.63;;
4704;SDS011;2366;51.332;6.610;2022-09-24T14:37:52;10.88;;;7.47;;
4704;SDS011;2366;51.332;6.610;2022-09-24T14:40:22;10.02;;;7.65;;
4704;SDS011;2366;51.332;6.610;2022-09-24T14:42:56;14.70;;;7.35;;
4704;SDS011;2366;51.332;6.610;2022-09-24T14:45:27;10.00;;;7.60;;
4704;SDS011;2366;51.332;6.610;2022-09-24T14:48:04;14.93;;;9.13;;
4704;SDS011;2366;51.332;6.610;2022-09-24T14:50:37;10.85;;;7.63;;
4704;SDS011;2366;51.332;6.610;2022-09-24T14:55:44;8.25;;;7.35;;
4704;SDS011;2366;51.332;6.610;2022-09-24T15:00:58;14.00;;;8.93;;
4704;SDS011;2366;51.332;6.610;2022-09-24T15:03:51;11.35;;;8.27;;
4704;SDS011;2366;51.332;6.610;2022-09-24T15:06:20;14.52;;;8.82;;
4704;SDS011;2366;51.332;6.610;2022-09-24T15:08:52;15.13;;;9.20;;
4704;SDS011;2366;51.332;6.610;2022-09-24T15:11:23;13.52;;;8.90;;
4704;SDS011;2366;51.332;6.610;2022-09-24T15:16:40;17.00;;;12.00;;
4704;SDS011;2366;51.332;6.610;2022-09-24T15:21:32;15.97;;;10.70;;
4704;SDS011;2366;51.332;6.610;2022-09-24T15:23:58;15.98;;;10.88;;
4704;SDS011;2366;51.332;6.610;2022-09-24T15:26:26;11.77;;;8.33;;
4704;SDS011;2366;51.332;6.610;2022-09-24T15:28:55;16.67;;;9.50;;
4704;SDS011;2366;51.332;6.610;2022-09-24T15:31:22;16.90;;;11.38;;
4704;SDS011;2366;51.332;6.610;2022-09-24T15:33:47;15.70;;;11.40;;
4704;SDS011;2366;51.332;6.610;2022-09-24T15:36:13;18.10;;;12.20;;
4704;SDS011;2366;51.332;6.610;2022-09-24T15:38:42;20.33;;;12.10;;
4704;SDS011;2366;51.332;6.610;2022-09-24T15:41:08;20.40;;;13.10;;
4704;SDS011;2366;51.332;6.610;2022-09-24T15:43:34;17.33;;;12.17;;
4704;SDS011;2366;51.332;6.610;2022-09-24T15:45:59;18.37;;;11.47;;
4704;SDS011;2366;51.332;6.610;2022-09-24T15:48:25;16.30;;;13.13;;
4704;SDS011;2366;51.332;6.610;2022-09-24T15:50:50;19.40;;;11.13;;
4704;SDS011;2366;51.332;6.610;2022-09-24T15:53:17;20.23;;;13.17;;
4704;SDS011;2366;51.332;6.610;2022-09-24T15:55:46;19.45;;;11.95;;
4704;SDS011;2366;51.332;6.610;2022-09-24T15:58:14;18.58;;;12.02;;
4704;SDS011;2366;51.332;6.610;2022-09-24T16:00:40;19.77;;;11.13;;
4704;SDS011;2366;51.332;6.610;2022-09-24T16:03:08;16.60;;;11.73;;
4704;SDS011;2366;51.332;6.610;2022-09-24T16:05:41;21.55;;;12.60;;
4704;SDS011;2366;51.332;6.610;2022-09-24T16:08:06;17.80;;;12.30;;
4704;SDS011;2366;51.332;6.610;2022-09-24T16:10:32;21.80;;;12.07;;
4704;SDS011;2366;51.332;6.610;2022-09-24T16:12:57;19.37;;;12.00;;
4704;SDS011;2366;51.332;6.610;2022-09-24T16:15:23;17.30;;;10.93;;
4704;SDS011;2366;51.332;6.610;2022-09-24T16:17:48;15.87;;;11.80;;
4704;SDS011;2366;51.332;6.610;2022-09-24T16:20:14;14.77;;;9.80;;
4704;SDS011;2366;51.332;6.610;2022-09-24T16:22:40;19.70;;;11.48;;
4704;SDS011;2366;51.332;6.610;2022-09-24T16:25:05;16.77;;;13.10;;
4704;SDS011;2366;51.332;6.610;2022-09-24T16:27:31;18.10;;;10.57;;
4704;SDS011;2366;51.332;6.610;2022-09-24T16:29:59;28.00;;;12.82;;
4704;SDS011;2366;51.332;6.610;2022-09-24T16:32:25;17.63;;;10.27;;
4704;SDS011;2366;51.332;6.610;2022-09-24T16:34:50;19.33;;;13.37;;
4704;SDS011;2366;51.332;6.610;2022-09-24T16:37:18;18.20;;;13.75;;
4704;SDS011;2366;51.332;6.610;2022-09-24T16:39:44;23.17;;;12.90;;
4704;SDS011;2366;51.332;6.610;2022-09-24T16:42:09;20.10;;;13.20;;
4704;SDS011;2366;51.332;6.610;2022-09-24T16:44:35;25.93;;;16.67;;
4704;SDS011;2366;51.332;6.610;2022-09-24T16:47:00;24.50;;;17.07;;
4704;SDS011;2366;51.332;6.610;2022-09-24T16:49:26;25.10;;;18.70;;
4704;SDS011;2366;51.332;6.610;2022-09-24T16:51:51;34.13;;;21.23;;
4704;SDS011;2366;51.332;6.610;2022-09-24T16:54:17;30.17;;;20.13;;
4704;SDS011;2366;51.332;6.610;2022-09-24T16:56:43;28.23;;;17.48;;
4704;SDS011;2366;51.332;6.610;2022-09-24T16:59:09;25.70;;;18.60;;
4704;SDS011;2366;51.332;6.610;2022-09-24T17:01:35;25.92;;;17.15;;
4704;SDS011;2366;51.332;6.610;2022-09-24T17:04:03;30.65;;;17.48;;
4704;SDS011;2366;51.332;6.610;2022-09-24T17:06:29;30.07;;;20.83;;
4704;SDS011;2366;51.332;6.610;2022-09-24T17:08:55;27.42;;;18.63;;
4704;SDS011;2366;51.332;6.610;2022-09-24T17:11:39;28.70;;;20.05;;
4704;SDS011;2366;51.332;6.610;2022-09-24T17:14:06;29.27;;;18.00;;
4704;SDS011;2366;51.332;6.610;2022-09-24T17:16:33;24.48;;;18.05;;
4704;SDS011;2366;51.332;6.610;2022-09-24T17:18:58;28.50;;;18.53;;
4704;SDS011;2366;51.332;6.610;2022-09-24T17:21:25;25.10;;;17.13;;
4704;SDS011;2366;51.332;6.610;2022-09-24T17:23:51;29.53;;;19.10;;
4704;SDS011;2366;51.332;6.610;2022-09-24T17:26:17;33.40;;;21.10;;